Time;durP1;ratioP1;P1;durP2;ratioP2;P2;SDS_P1;SDS_P2;PMS_P1;PMS_P2;Temp;Humidity;BMP_temperature;BMP_pressure;BME280_temperature;BME280_humidity;BME280_pressure;Samples;Min_cycle;Max_cycle;Signal;HPM_P1;HPM_P2
2023/10/07 00:00:32;;;;;;;2.90;1.30;;;11.40;94.80;;;10.21;87.48;100909.84;10209135;28;98878;-86
2023/10/07 00:05:37;;;;;;;3.20;1.53;;;11.50;94.60;;;10.21;87.11;100922.28;10192574;28;98182;-86
2023/10/07 00:10:41;;;;;;;4.27;1.63;;;11.50;94.50;;;10.19;86.82;100915.31;10193525;28;96870;-87
2023/10/07 00:15:51;;;;;;;3.07;1.60;;;11.50;94.30;;;10.20;86.99;100916.13;10209170;28;96948;-86
2023/10/07 00:20:56;;;;;;;5.03;1.80;;;11.50;94.30;;;10.15;86.58;100905.13;10209240;28;96590;-86
2023/10/07 00:26:00;;;;;;;3.60;1.37;;;11.40;94.30;;;10.11;86.03;100906.38;10224724;28;96728;-86
2023/10/07 00:31:15;;;;;;;3.80;1.50;;;11.40;94.30;;;10.02;86.60;100899.31;10193345;28;98333;-87
2023/10/07 00:41:45;;;;;;;2.50;1.30;;;11.20;94.50;;;9.92;86.62;100863.00;10219574;28;98369;-86
2023/10/07 00:52:22;;;;;;;3.17;1.53;;;11.10;94.70;;;9.78;87.42;100852.06;10224025;28;97067;-86
2023/10/07 01:02:39;;;;;;;9.17;2.43;;;11.00;95.00;;;9.62;88.13;100844.72;10193680;28;98354;-86
2023/10/07 01:07:48;;;;;;;7.77;2.70;;;10.90;95.20;;;9.56;88.08;100832.03;10167174;28;98493;-86
2023/10/07 01:12:55;;;;;;;6.13;2.60;;;10.80;95.20;;;9.49;88.15;100841.56;10188448;28;96724;-87
2023/10/07 01:18:05;;;;;;;5.27;2.50;;;10.80;95.30;;;9.44;88.40;100835.84;10221174;28;96801;-87
2023/10/07 01:23:16;;;;;;;5.30;2.17;;;10.80;95.50;;;9.37;88.76;100825.81;10205205;28;98794;-86
2023/10/07 01:28:21;;;;;;;5.10;2.47;;;10.70;95.70;;;9.31;89.22;100814.94;10211589;28;96672;-86
2023/10/07 01:33:35;;;;;;;11.33;3.03;;;10.60;96.10;;;9.26;90.02;100814.53;10234463;28;99300;-86
2023/10/07 01:38:44;;;;;;;8.97;2.60;;;10.60;96.00;;;9.22;90.63;100815.81;10194406;28;97138;-87
2023/10/07 01:44:00;;;;;;;6.60;2.80;;;10.50;96.40;;;9.22;91.14;100813.16;10214068;28;96950;-86
2023/10/07 01:49:11;;;;;;;5.07;2.30;;;10.50;96.60;;;9.23;91.27;100812.16;10221382;28;96659;-86
2023/10/07 01:54:15;;;;;;;5.47;2.33;;;10.60;96.70;;;9.23;91.69;100804.22;10190915;28;96578;-85
2023/10/07 01:59:19;;;;;;;7.13;2.57;;;10.50;97.00;;;9.19;92.58;100806.34;10192634;28;97784;-86
2023/10/07 02:04:28;;;;;;;5.93;2.67;;;10.50;97.20;;;9.20;93.32;100800.03;10200952;28;96992;-86
2023/10/07 02:09:36;;;;;;;5.80;2.43;;;10.50;97.40;;;9.22;93.63;100794.59;10176519;28;96589;-86
2023/10/07 02:14:40;;;;;;;5.10;2.20;;;10.50;97.60;;;9.22;93.31;100789.28;10202129;28;96768;-86
2023/10/07 02:19:43;;;;;;;4.93;2.20;;;10.50;97.70;;;9.17;93.71;100794.19;10171183;28;96776;-86
2023/10/07 02:24:55;;;;;;;8.00;3.20;;;10.50;98.30;;;9.12;94.39;100784.03;10194922;28;96977;-86
2023/10/07 02:29:59;;;;;;;5.70;2.30;;;10.40;98.30;;;9.11;94.83;100777.03;10195428;28;97737;-86
2023/10/07 02:35:09;;;;;;;5.93;2.30;;;10.40;98.70;;;9.14;94.95;100765.31;10170626;28;96605;-86
2023/10/07 02:45:43;;;;;;;14.40;5.37;;;10.60;98.70;;;9.15;95.03;100759.84;10147862;28;96847;-86
2023/10/07 02:50:51;;;;;;;13.63;4.37;;;10.50;98.70;;;9.08;94.82;100746.34;10189715;28;96771;-86
2023/10/07 02:55:58;;;;;;;10.53;3.60;;;10.40;98.70;;;9.02;94.45;100756.69;10192840;28;96560;-86
2023/10/07 03:01:13;;;;;;;14.30;4.97;;;10.40;98.80;;;8.92;94.67;100758.53;10193213;28;98400;-86
2023/10/07 03:06:17;;;;;;;12.50;5.27;;;10.30;99.10;;;8.83;95.09;100750.47;10200246;28;96698;-86
2023/10/07 03:11:21;;;;;;;9.23;3.77;;;10.10;99.20;;;8.78;95.41;100752.72;10209444;28;96601;-86
2023/10/07 03:16:28;;;;;;;6.07;3.47;;;10.10;99.40;;;8.75;95.90;100744.19;10161559;28;99032;-86
2023/10/07 03:26:45;;;;;;;8.63;3.47;;;10.10;99.60;;;8.72;96.21;100750.63;10168857;28;96957;-86
2023/10/07 03:31:49;;;;;;;8.03;3.50;;;10.00;99.80;;;8.68;96.51;100743.94;10205777;28;97531;-86
2023/10/07 03:42:14;;;;;;;5.43;2.70;;;10.00;99.90;;;8.67;97.06;100733.47;10207302;28;97986;-87
2023/10/07 03:47:18;;;;;;;4.97;2.27;;;10.00;99.90;;;8.64;97.28;100739.91;10202752;28;96496;-87
2023/10/07 03:52:27;;;;;;;7.53;2.93;;;10.00;99.90;;;8.62;97.34;100733.91;10206090;28;96557;-85
2023/10/07 03:57:33;;;;;;;5.97;2.60;;;10.00;99.90;;;8.65;97.58;100738.94;10195618;28;97000;-85
2023/10/07 04:02:39;;;;;;;5.57;2.67;;;10.00;99.90;;;8.65;97.66;100738.09;10189537;28;96578;-85
2023/10/07 04:07:45;;;;;;;6.03;2.50;;;10.00;99.90;;;8.63;97.40;100730.28;10215824;28;98553;-86
2023/10/07 04:12:56;;;;;;;8.40;2.70;;;10.00;99.90;;;8.58;97.65;100730.72;10210406;28;98515;-86
2023/10/07 04:18:00;;;;;;;11.52;4.88;;;10.00;99.90;;;8.54;97.33;100717.91;10212031;28;97905;-87
2023/10/07 04:23:04;;;;;;;15.17;5.23;;;9.90;99.90;;;8.50;97.63;100719.97;10206164;28;97192;-86
2023/10/07 04:28:08;;;;;;;10.03;4.23;;;9.90;99.90;;;8.47;97.50;100724.75;10203243;28;96655;-87
2023/10/07 04:33:11;;;;;;;11.70;4.77;;;9.80;99.90;;;8.44;97.33;100723.19;10205641;28;97286;-86
2023/10/07 04:43:36;;;;;;;11.17;4.57;;;9.80;99.90;;;8.32;97.78;100714.53;10194349;28;96479;-86
2023/10/07 04:48:54;;;;;;;11.97;5.40;;;9.70;99.90;;;8.31;98.10;100720.81;10198968;28;97532;-86
2023/10/07 04:53:59;;;;;;;13.87;5.60;;;9.70;99.90;;;8.36;98.68;100714.31;10192886;28;96727;-86
2023/10/07 04:59:06;;;;;;;11.23;4.90;;;9.70;99.90;;;8.36;98.62;100712.47;10209287;28;99122;-86
2023/10/07 05:04:10;;;;;;;9.27;4.30;;;9.80;99.90;;;8.36;98.92;100706.34;10217076;28;97755;-86
2023/10/07 05:09:21;;;;;;;14.10;5.67;;;9.80;99.90;;;8.45;99.79;100702.84;10164379;28;98583;-86
2023/10/07 05:14:25;;;;;;;10.37;4.37;;;9.80;99.90;;;8.57;100.00;100714.94;10216299;28;98325;-86
2023/10/07 05:19:30;;;;;;;8.40;4.30;;;10.00;99.90;;;8.74;100.00;100711.56;10209256;28;98097;-86
2023/10/07 05:24:34;;;;;;;9.43;4.63;;;10.10;99.90;;;8.90;100.00;100712.78;10190787;28;98969;-85
2023/10/07 05:29:40;;;;;;;11.90;5.73;;;10.30;99.90;;;9.13;100.00;100722.06;10175686;28;96596;-85
2023/10/07 05:34:48;;;;;;;8.77;4.57;;;10.50;99.90;;;9.37;100.00;100717.06;10173197;28;96686;-85
2023/10/07 05:39:52;;;;;;;6.70;3.97;;;10.70;99.90;;;9.70;100.00;100724.56;10210737;28;98044;-86
2023/10/07 05:44:57;;;;;;;6.60;3.07;;;11.00;99.90;;;9.98;100.00;100718.22;10198029;28;99074;-86
2023/10/07 05:50:01;;;;;;;8.23;3.57;;;11.30;99.90;;;10.30;100.00;100715.03;10224427;28;96764;-85
2023/10/07 05:55:09;;;;;;;7.10;3.57;;;11.60;99.90;;;10.64;100.00;100715.13;10194783;28;97451;-85
2023/10/07 06:00:17;;;;;;;6.97;3.60;;;11.90;99.90;;;10.91;100.00;100721.28;10194416;28;97127;-85
2023/10/07 06:05:27;;;;;;;5.83;3.10;;;12.20;99.90;;;11.06;100.00;100730.34;10171156;28;97717;-86
2023/10/07 06:10:33;;;;;;;5.77;2.50;;;12.40;99.90;;;11.02;100.00;100723.66;10188075;28;97680;-86
2023/10/07 06:15:38;;;;;;;5.93;2.77;;;12.40;99.90;;;10.93;98.51;100729.94;10160846;28;96658;-86
2023/10/07 06:20:46;;;;;;;9.03;3.00;;;12.30;99.90;;;10.85;97.59;100727.22;10171481;28;98740;-85
2023/10/07 06:25:52;;;;;;;8.03;2.97;;;12.30;99.90;;;10.79;96.88;100731.34;10179699;28;98677;-85
2023/10/07 06:31:22;;;;;;;7.50;3.00;;;12.30;99.90;;;10.80;96.92;100733.03;10187899;28;96658;-85
2023/10/07 06:36:30;;;;;;;7.47;2.60;;;12.20;99.90;;;10.82;96.53;100731.03;10117623;28;97016;-85
2023/10/07 06:41:35;;;;;;;5.43;2.80;;;12.20;99.90;;;10.83;96.75;100730.03;10189370;28;97442;-86
2023/10/07 06:46:42;;;;;;;5.13;2.90;;;12.20;99.90;;;10.91;97.09;100731.91;10170770;28;97353;-86
2023/10/07 06:51:53;;;;;;;7.00;2.97;;;12.20;99.90;;;11.01;97.03;100726.50;10170124;28;96929;-86
2023/10/07 06:56:58;;;;;;;5.40;2.43;;;12.40;99.90;;;11.16;97.54;100732.91;10199505;28;97325;-86
2023/10/07 07:02:10;;;;;;;7.20;3.17;;;12.50;99.90;;;11.25;97.64;100724.78;10195995;28;97888;-85
2023/10/07 07:07:16;;;;;;;7.43;3.57;;;12.60;99.90;;;11.48;98.73;100717.06;10183745;28;98455;-86
2023/10/07 07:12:23;;;;;;;8.43;3.30;;;12.80;99.90;;;11.88;99.60;100714.72;10223490;28;96611;-86
2023/10/07 07:17:29;;;;;;;6.20;2.90;;;13.20;99.90;;;12.42;100.00;100715.09;10189356;28;97449;-86
2023/10/07 07:22:45;;;;;;;7.03;2.63;;;13.70;99.90;;;13.17;100.00;100707.59;10183358;28;96760;-87
2023/10/07 07:27:52;;;;;;;6.50;2.85;;;14.40;99.90;;;14.13;92.35;100701.09;10190523;28;97864;-84
2023/10/07 07:33:06;;;;;;;5.65;2.13;;;15.20;99.90;;;14.90;85.88;100708.97;10212116;28;96635;-84
2023/10/07 07:38:43;;;;;;;6.32;2.47;;;16.00;98.70;;;15.62;80.31;100697.53;10226032;28;98594;-85
2023/10/07 07:43:43;;;;;;;5.10;2.57;;;16.70;97.00;;;16.12;75.85;100693.13;10212233;28;97151;-85
2023/10/07 07:48:53;;;;;;;7.90;2.67;;;17.20;95.20;;;16.47;73.63;100691.38;10164877;28;96871;-85
2023/10/07 07:54:00;;;;;;;;;;;17.50;94.40;;;16.79;71.01;100688.16;10180309;28;96854;-85
2023/10/07 07:59:13;;;;;;;6.70;2.30;;;17.80;93.10;;;17.04;67.24;100695.75;10192909;28;97033;-86
2023/10/07 08:04:19;;;;;;;8.27;3.03;;;18.10;92.30;;;17.21;64.80;100693.53;10211212;28;96811;-85
2023/10/07 08:09:24;;;;;;;9.35;2.88;;;18.30;90.80;;;17.28;64.55;100676.44;10218083;28;98566;-86
2023/10/07 08:14:27;;;;;;;9.20;2.17;;;18.40;90.20;;;17.36;64.51;100684.31;10197597;28;98298;-85
2023/10/07 08:19:32;;;;;;;4.55;2.22;;;18.50;90.30;;;17.47;62.51;100666.81;10194468;28;97991;-86
2023/10/07 08:24:39;;;;;;;5.80;2.13;;;18.60;88.80;;;17.57;62.96;100661.88;10198289;28;96745;-85
2023/10/07 08:29:44;;;;;;;8.27;2.20;;;18.70;89.00;;;17.71;62.72;100670.81;10189753;28;96672;-86
2023/10/07 08:34:49;;;;;;;4.55;2.10;;;18.80;88.30;;;17.79;62.04;100669.81;10208801;28;98150;-86
2023/10/07 08:39:56;;;;;;;5.05;1.95;;;18.90;87.70;;;17.84;61.78;100672.72;10223690;28;96650;-86
2023/10/07 08:45:00;;;;;;;4.28;1.60;;;18.90;87.50;;;18.10;63.52;100666.53;10221377;28;97050;-86
2023/10/07 08:50:06;;;;;;;6.88;1.90;;;19.20;89.20;;;18.34;60.62;100674.00;10207127;28;98739;-85
2023/10/07 08:55:10;;;;;;;8.35;2.20;;;19.40;86.20;;;18.59;59.53;100676.91;10233735;28;96696;-87
2023/10/07 09:00:21;;;;;;;6.63;2.45;;;19.70;85.40;;;18.79;57.83;100662.63;10227009;28;97986;-87
2023/10/07 09:05:27;;;;;;;3.15;1.88;;;19.90;84.70;;;18.86;57.79;100661.56;10228776;28;96617;-87
2023/10/07 09:10:36;;;;;;;7.50;2.55;;;20.00;83.40;;;18.89;57.39;100666.53;10194978;28;97025;-86
2023/10/07 09:15:42;;;;;;;3.80;1.55;;;20.00;82.60;;;18.96;57.12;100661.94;10218143;28;97439;-86
2023/10/07 09:20:50;;;;;;;3.88;1.52;;;20.00;83.10;;;19.05;57.27;100664.41;10220629;28;96583;-86
2023/10/07 09:25:55;;;;;;;2.88;1.50;;;20.20;83.00;;;19.18;54.99;100658.97;10204882;28;96813;-86
2023/10/07 09:31:05;;;;;;;4.55;1.88;;;20.30;81.50;;;19.30;54.02;100657.25;10162081;28;96855;-86
2023/10/07 09:36:25;;;;;;;5.35;1.92;;;20.40;80.50;;;19.40;53.45;100656.81;10208414;28;96595;-87
2023/10/07 09:41:33;;;;;;;3.90;1.70;;;20.50;78.80;;;19.44;53.76;100649.97;10180932;28;97145;-87
2023/10/07 09:46:40;;;;;;;5.25;2.15;;;20.50;79.20;;;19.56;52.90;100650.09;10191770;28;97362;-87
2023/10/07 09:51:56;;;;;;;4.50;2.20;;;20.60;78.40;;;19.63;52.73;100638.28;10213700;28;98631;-86
2023/10/07 09:57:55;;;;;;;5.07;2.13;;;20.70;77.90;;;19.83;52.44;100648.91;10181985;28;97156;-86
2023/10/07 10:03:28;;;;;;;3.78;1.92;;;20.80;77.00;;;19.91;51.98;100639.72;10195810;28;97709;-87
2023/10/07 10:09:08;;;;;;;5.28;1.98;;;20.90;77.10;;;20.03;52.45;100628.03;10200552;28;96723;-87
2023/10/07 10:19:47;;;;;;;3.38;1.52;;;21.30;76.40;;;20.51;50.59;100638.25;10184049;28;97465;-87
2023/10/07 10:24:55;;;;;;;3.55;1.70;;;21.60;75.10;;;20.80;50.10;100620.47;10190252;28;97888;-87
2023/10/07 10:30:04;;;;;;;4.72;1.98;;;22.00;75.00;;;21.15;49.80;100616.34;10181228;28;98443;-87
2023/10/07 10:35:13;;;;;;;3.95;1.73;;;22.40;74.80;;;21.48;46.61;100613.25;10194060;28;97440;-87
2023/10/07 10:40:19;;;;;;;3.05;1.50;;;22.80;72.10;;;21.58;47.81;100613.50;10224703;28;97057;-87
2023/10/07 10:45:26;;;;;;;3.33;1.55;;;23.00;71.80;;;21.71;45.93;100610.63;10190111;28;97632;-86
2023/10/07 10:50:32;;;;;;;4.05;1.85;;;23.00;69.20;;;21.76;46.21;100599.06;10205763;28;96586;-87
2023/10/07 10:55:38;;;;;;;5.22;2.20;;;23.00;70.30;;;21.91;46.71;100591.38;10190264;28;97198;-86
2023/10/07 11:00:51;;;;;;;5.50;2.28;;;23.10;70.80;;;21.93;46.20;100586.53;10208719;28;96744;-87
2023/10/07 11:06:00;;;;;;;4.18;2.08;;;23.20;69.50;;;21.82;46.09;100576.50;10189223;28;96790;-86
2023/10/07 11:11:10;;;;;;;2.85;1.40;;;23.00;69.20;;;21.56;47.00;100578.56;10195880;28;97885;-87
2023/10/07 11:16:16;;;;;;;4.28;1.65;;;22.70;70.00;;;21.27;47.43;100552.34;10193375;28;98348;-87
2023/10/07 11:21:21;;;;;;;4.18;1.80;;;22.40;70.90;;;21.04;48.88;100537.69;10193243;28;97012;-87
2023/10/07 11:26:30;;;;;;;7.13;2.05;;;22.20;71.80;;;20.90;49.90;100541.63;10166958;28;97121;-87
2023/10/07 11:31:34;;;;;;;3.08;1.45;;;22.00;72.50;;;21.04;50.89;100537.69;10184509;28;96696;-86
2023/10/07 11:36:49;;;;;;;3.92;1.58;;;22.10;73.50;;;21.22;49.92;100530.59;10199532;28;98536;-87
2023/10/07 11:41:55;;;;;;;4.32;1.67;;;22.30;73.20;;;21.36;48.24;100534.81;10198376;28;98131;-86
2023/10/07 11:46:58;;;;;;;2.63;1.20;;;22.40;71.80;;;21.48;49.42;100526.72;10185505;28;100537;-86
2023/10/07 11:52:06;;;;;;;2.28;1.30;;;22.40;73.00;;;21.69;47.43;100523.47;10216623;28;96680;-86
2023/10/07 11:57:10;;;;;;;2.70;1.25;;;22.60;71.90;;;21.98;46.49;100515.50;10201790;28;96902;-85
2023/10/07 12:02:17;;;;;;;2.60;1.10;;;22.80;71.50;;;22.21;45.15;100510.09;10176228;28;98466;-87
2023/10/07 12:07:21;;;;;;;3.20;1.00;;;23.00;70.00;;;22.39;44.51;100490.19;10215947;28;98839;-88
2023/10/07 12:12:24;;;;;;;2.63;1.17;;;23.20;69.30;;;22.44;44.01;100483.00;10184344;28;96658;-87
2023/10/07 12:17:29;;;;;;;3.65;1.20;;;23.30;68.20;;;22.39;44.50;100476.66;10194850;28;97662;-87
2023/10/07 12:22:35;;;;;;;5.32;1.33;;;23.30;68.40;;;22.22;45.03;100487.38;10220828;28;97031;-87
2023/10/07 12:27:40;;;;;;;2.67;1.30;;;23.20;68.30;;;22.00;46.01;100489.00;10224223;28;98399;-87
2023/10/07 12:32:48;;;;;;;3.22;1.38;;;23.00;68.80;;;21.77;46.59;100481.72;10185706;28;98327;-87
2023/10/07 12:37:52;;;;;;;2.90;1.20;;;22.80;69.50;;;21.62;47.19;100483.00;10201978;28;96864;-87
2023/10/07 12:42:59;;;;;;;2.75;1.38;;;22.70;69.80;;;21.52;47.88;100474.63;10179364;28;96629;-87
2023/10/07 12:48:04;;;;;;;4.03;1.75;;;22.50;70.30;;;21.48;48.54;100475.34;10207537;28;96688;-87
2023/10/07 12:53:10;;;;;;;2.90;1.20;;;22.50;70.90;;;21.45;48.46;100467.69;10187877;28;96666;-88
2023/10/07 12:58:18;;;;;;;2.58;1.30;;;22.40;71.00;;;21.43;48.05;100462.53;10189210;28;98788;-87
2023/10/07 13:03:22;;;;;;;2.72;1.33;;;22.40;70.60;;;21.47;48.55;100468.28;10192370;28;98097;-88
2023/10/07 13:08:27;;;;;;;2.60;1.40;;;22.50;71.20;;;21.50;47.94;100463.22;10208932;28;96951;-87
2023/10/07 13:13:34;;;;;;;5.15;1.42;;;22.50;70.80;;;21.53;47.24;100456.53;10180460;28;97018;-87
2023/10/07 13:18:44;;;;;;;3.20;1.27;;;22.50;70.30;;;21.51;47.00;100445.94;10232387;28;97636;-87
2023/10/07 13:23:48;;;;;;;2.63;1.20;;;22.60;69.60;;;21.49;46.84;100445.38;10213368;28;98653;-88
2023/10/07 13:28:54;;;;;;;3.10;1.63;;;22.50;69.40;;;21.41;47.35;100451.13;10201427;28;99119;-87
2023/10/07 13:33:58;;;;;;;4.80;1.55;;;22.50;69.90;;;21.32;47.73;100437.13;10204606;28;98430;-88
2023/10/07 13:39:03;;;;;;;2.53;1.33;;;22.40;69.80;;;21.26;47.90;100448.00;10187815;28;96732;-87
2023/10/07 13:44:09;;;;;;;4.10;1.75;;;22.30;70.20;;;21.23;47.78;100457.41;10220733;28;98264;-87
2023/10/07 13:49:14;;;;;;;4.00;1.50;;;22.30;69.70;;;21.17;47.30;100454.78;10229622;28;98338;-86
2023/10/07 13:59:32;;;;;;;2.83;1.50;;;22.10;69.10;;;21.05;46.75;100431.28;10209173;28;96722;-85
2023/10/07 14:04:36;;;;;;;3.63;1.70;;;22.00;69.60;;;21.04;46.95;100416.09;10200853;28;97338;-86
2023/10/07 14:09:41;;;;;;;3.28;1.65;;;22.10;69.20;;;21.03;46.25;100414.47;10197021;28;98334;-86
2023/10/07 14:14:51;;;;;;;4.07;1.63;;;22.10;68.60;;;21.05;46.21;100414.22;10194789;28;98839;-86
2023/10/07 14:19:58;;;;;;;3.00;1.45;;;22.10;68.40;;;21.04;46.24;100397.19;10192721;28;96766;-86
2023/10/07 14:25:06;;;;;;;2.95;1.40;;;22.10;68.30;;;21.08;46.08;100390.28;10190636;28;96639;-85
2023/10/07 14:30:14;;;;;;;2.50;1.20;;;22.10;68.30;;;21.11;45.92;100395.22;10185637;28;97427;-85
2023/10/07 14:35:21;;;;;;;2.83;1.40;;;22.20;68.00;;;21.14;46.08;100393.13;10167459;28;97122;-86
2023/10/07 14:40:25;;;;;;;5.28;1.40;;;22.20;68.00;;;21.11;45.46;100397.09;10194632;28;96947;-86
2023/10/07 14:45:29;;;;;;;4.10;1.42;;;22.20;67.70;;;21.04;44.69;100388.25;10191418;28;99649;-85
2023/10/07 14:50:35;;;;;;;4.20;1.30;;;22.10;66.70;;;20.97;45.57;100384.84;10187197;28;97271;-85
2023/10/07 14:55:44;;;;;;;4.72;1.63;;;22.10;67.40;;;20.86;45.59;100378.34;10191399;28;96690;-85
2023/10/07 15:00:53;;;;;;;3.17;1.20;;;21.90;67.40;;;20.79;45.11;100386.56;10199413;28;96790;-85
2023/10/07 15:06:08;;;;;;;3.55;1.58;;;21.90;67.00;;;20.71;44.88;100391.47;10187253;28;97191;-85
2023/10/07 15:11:21;;;;;;;3.72;1.35;;;21.80;66.60;;;20.60;44.81;100389.56;10217059;28;96639;-85
2023/10/07 15:16:25;;;;;;;3.67;1.33;;;21.70;66.60;;;20.44;44.97;100380.19;10216800;28;99136;-86
2023/10/07 15:21:29;;;;;;;2.92;1.33;;;21.60;66.70;;;20.38;45.22;100387.31;10179485;28;96758;-85
2023/10/07 15:26:35;;;;;;;2.78;1.20;;;21.50;66.90;;;20.32;45.65;100390.91;10198812;28;96742;-85
2023/10/07 15:31:39;;;;;;;4.90;1.50;;;21.40;67.10;;;20.31;46.34;100397.38;10201669;28;97852;-85
2023/10/07 15:36:43;;;;;;;3.97;1.40;;;21.40;67.30;;;20.25;46.58;100391.00;10186407;28;97585;-85
2023/10/07 15:41:46;;;;;;;4.30;1.77;;;21.40;67.70;;;20.19;47.66;100399.19;10230401;28;96895;-85
2023/10/07 15:46:50;;;;;;;4.63;1.40;;;21.30;68.20;;;20.05;47.74;100407.44;10202189;28;98301;-85
2023/10/07 15:51:55;;;;;;;3.30;1.42;;;21.20;68.50;;;19.96;48.40;100394.47;10207074;28;97487;-85
2023/10/07 15:57:02;;;;;;;6.18;1.52;;;21.10;69.00;;;19.80;49.31;100395.91;10207464;28;97416;-85
2023/10/07 16:02:06;;;;;;;3.97;1.70;;;20.90;69.60;;;19.64;48.80;100397.28;10180881;28;96942;-85
2023/10/07 16:07:09;;;;;;;4.22;2.20;;;20.80;69.80;;;19.52;48.73;100389.06;10196306;28;96796;-85
2023/10/07 16:12:14;;;;;;;8.77;4.72;;;20.60;69.70;;;19.43;48.89;100394.94;10217879;28;96814;-85
2023/10/07 16:17:19;;;;;;;7.18;3.58;;;20.60;69.90;;;19.36;49.41;100389.63;10205203;28;97590;-85
2023/10/07 16:22:24;;;;;;;7.30;3.85;;;20.40;70.10;;;19.23;50.42;100390.56;10220952;28;96806;-85
2023/10/07 16:27:31;;;;;;;13.25;4.15;;;20.30;70.70;;;19.05;51.80;100387.81;10200091;28;96803;-85
2023/10/07 16:32:36;;;;;;;16.65;5.15;;;20.10;71.40;;;18.83;52.46;100392.75;10199395;28;97448;-84
2023/10/07 16:37:40;;;;;;;9.85;3.03;;;20.00;72.00;;;18.61;53.27;100397.59;10203257;28;97521;-85
2023/10/07 16:42:44;;;;;;;5.47;2.65;;;19.70;72.70;;;18.36;54.66;100392.16;10185075;28;98769;-85
2023/10/07 16:47:49;;;;;;;3.78;2.10;;;19.50;73.60;;;18.10;55.90;100398.44;10208637;28;96699;-86
2023/10/07 16:52:53;;;;;;;5.35;2.40;;;19.20;74.50;;;17.84;56.83;100395.84;10183702;28;98025;-86
2023/10/07 16:58:00;;;;;;;7.75;3.25;;;19.00;75.40;;;17.59;57.86;100390.28;10188459;28;96620;-86
2023/10/07 17:03:04;;;;;;;5.30;2.80;;;18.70;76.10;;;17.41;57.85;100390.09;10187325;28;98789;-86
2023/10/07 17:08:08;;;;;;;4.05;1.88;;;18.50;76.40;;;17.32;58.00;100384.91;10189196;28;96615;-86
2023/10/07 17:13:13;;;;;;;6.13;1.77;;;18.40;76.80;;;17.24;57.88;100374.38;10216100;28;100152;-86
2023/10/07 17:18:18;;;;;;;6.15;1.35;;;18.40;76.80;;;17.20;57.95;100378.50;10192011;28;96804;-86
2023/10/07 17:23:21;;;;;;;7.57;2.67;;;18.30;76.90;;;17.11;57.81;100379.75;10210859;28;97091;-86
2023/10/07 17:28:26;;;;;;;6.75;1.90;;;18.20;77.10;;;17.07;57.62;100378.50;10213163;28;97498;-86
2023/10/07 17:33:31;;;;;;;7.45;2.20;;;18.20;77.00;;;17.05;57.78;100378.72;10181067;28;96516;-85
2023/10/07 17:38:35;;;;;;;6.50;2.20;;;18.20;77.10;;;17.03;58.26;100383.47;10204808;28;96886;-86
2023/10/07 17:43:40;;;;;;;5.68;2.08;;;18.20;77.20;;;17.00;59.62;100383.88;10186184;28;96640;-86
2023/10/07 17:48:43;;;;;;;7.65;1.90;;;18.10;78.00;;;16.96;59.07;100381.81;10198777;28;96554;-86
2023/10/07 17:53:47;;;;;;;4.30;1.83;;;18.10;78.10;;;17.02;58.96;100376.44;10197415;28;96685;-86
2023/10/07 17:58:51;;;;;;;5.25;1.90;;;18.10;77.90;;;17.13;58.73;100377.69;10175600;28;98879;-86
2023/10/07 18:03:56;;;;;;;3.25;1.48;;;18.20;77.60;;;17.21;58.38;100377.47;10192921;28;96832;-86
2023/10/07 18:09:01;;;;;;;5.47;2.17;;;18.30;77.40;;;17.26;58.41;100366.94;10188335;28;98532;-85
2023/10/07 18:14:05;;;;;;;3.40;1.52;;;18.40;77.20;;;17.30;57.74;100357.44;10188728;28;98307;-86
2023/10/07 18:19:10;;;;;;;4.15;1.75;;;18.50;77.20;;;17.34;57.90;100334.50;10209285;28;97598;-86
2023/10/07 18:24:14;;;;;;;7.20;2.53;;;18.50;77.40;;;17.42;57.44;100338.00;10224622;28;97830;-86
2023/10/07 18:29:17;;;;;;;5.50;2.50;;;18.50;77.30;;;17.54;57.88;100337.16;10198535;28;98021;-86
2023/10/07 18:34:23;;;;;;;5.68;2.22;;;18.60;77.70;;;17.72;57.19;100344.59;10207316;28;96644;-86
2023/10/07 18:39:27;;;;;;;6.57;2.45;;;18.70;77.40;;;18.01;55.20;100337.06;10170073;28;98443;-87
2023/10/07 18:44:31;;;;;;;4.65;2.00;;;19.00;75.80;;;18.30;53.53;100335.69;10183413;28;96565;-87
2023/10/07 18:49:38;;;;;;;5.07;1.65;;;19.30;74.30;;;18.49;52.99;100325.84;10195087;28;96726;-87
2023/10/07 18:54:42;;;;;;;4.95;1.77;;;19.50;74.00;;;18.53;51.75;100338.66;10171890;28;96625;-87
2023/10/07 18:59:50;;;;;;;4.50;1.60;;;19.60;72.30;;;18.62;48.74;100323.06;10218214;28;96594;-86
2023/10/07 19:04:54;;;;;;;3.83;1.90;;;19.60;70.20;;;18.70;46.10;100320.13;10193666;28;98954;-86
2023/10/07 19:10:00;;;;;;;3.75;1.50;;;19.70;66.50;;;18.79;44.61;100299.16;10186836;28;97397;-86
2023/10/07 19:15:05;;;;;;;3.30;1.48;;;19.80;65.50;;;18.86;43.00;100308.84;10226241;28;97381;-86
2023/10/07 19:20:12;;;;;;;3.60;1.30;;;19.90;64.00;;;18.97;41.53;100318.06;10184987;28;96486;-86
2023/10/07 19:25:19;;;;;;;6.22;1.60;;;20.00;61.80;;;19.06;40.73;100310.53;10214068;28;97069;-88
2023/10/07 19:30:22;;;;;;;3.65;1.58;;;20.10;61.20;;;19.14;40.22;100307.56;10203091;28;96589;-87
2023/10/07 19:35:26;;;;;;;4.80;1.60;;;20.20;61.50;;;19.18;39.74;100308.75;10217065;28;98906;-87
2023/10/07 19:40:30;;;;;;;2.35;1.20;;;20.20;59.90;;;19.23;38.88;100315.13;10232533;28;97354;-89
2023/10/07 19:45:34;;;;;;;2.42;0.90;;;20.30;58.70;;;19.30;39.35;100298.91;10225020;28;97171;-87
2023/10/07 19:50:39;;;;;;;2.85;1.40;;;20.30;58.70;;;19.40;38.78;100298.41;10174576;28;96583;-87
2023/10/07 19:55:43;;;;;;;3.50;1.60;;;20.40;58.20;;;19.43;38.27;100287.16;10180319;28;96665;-88
2023/10/07 20:00:47;;;;;;;3.22;1.23;;;20.50;58.60;;;19.46;38.61;100298.31;10182104;28;96697;-88
2023/10/07 20:05:51;;;;;;;4.13;1.35;;;20.50;58.10;;;19.47;38.63;100294.59;10203999;28;97625;-87
2023/10/07 20:10:54;;;;;;;4.93;1.58;;;20.50;58.20;;;19.47;38.51;100269.50;10187299;28;96606;-88
2023/10/07 20:15:59;;;;;;;3.78;1.27;;;20.50;58.00;;;19.48;38.31;100288.13;10197674;28;97564;-87
2023/10/07 20:21:02;;;;;;;5.65;1.65;;;20.50;57.70;;;19.50;38.58;100310.31;10196252;28;96905;-87
2023/10/07 20:26:07;;;;;;;5.25;1.63;;;20.50;58.20;;;19.47;38.94;100309.94;10171501;28;96998;-86
2023/10/07 20:31:17;;;;;;;2.50;1.00;;;20.50;58.60;;;19.41;39.14;100311.66;10177881;28;96602;-87
2023/10/07 20:36:22;;;;;;;2.97;1.17;;;20.50;59.00;;;19.33;39.10;100303.88;10193175;28;96608;-87
2023/10/07 20:41:29;;;;;;;3.30;1.30;;;20.40;58.90;;;19.30;39.48;100303.47;10206200;28;96464;-87
2023/10/07 20:46:34;;;;;;;3.63;1.35;;;20.30;58.70;;;19.23;39.29;100298.16;10226569;28;97857;-87
2023/10/07 20:51:37;;;;;;;4.78;1.42;;;20.30;58.50;;;19.21;39.02;100294.88;10189687;28;96670;-87
2023/10/07 20:56:41;;;;;;;3.72;1.02;;;20.20;58.30;;;19.22;38.88;100297.34;10190386;28;96828;-87
2023/10/07 21:01:45;;;;;;;2.65;1.02;;;20.20;58.30;;;19.26;38.75;100297.72;10206758;28;96653;-87
2023/10/07 21:06:49;;;;;;;2.95;1.17;;;20.30;57.80;;;19.27;38.90;100307.44;10210568;28;96628;-87
2023/10/07 21:11:54;;;;;;;2.38;1.30;;;20.30;58.10;;;19.25;39.22;100298.75;10178179;28;96572;-87
2023/10/07 21:16:58;;;;;;;3.45;1.05;;;20.30;58.30;;;19.18;39.27;100290.72;10210031;28;98414;-87
2023/10/07 21:22:03;;;;;;;3.53;1.33;;;20.20;58.70;;;19.21;39.73;100278.69;10186320;28;96652;-88
2023/10/07 21:27:06;;;;;;;3.42;1.35;;;20.20;58.70;;;19.30;39.02;100269.25;10179584;28;99007;-87
2023/10/07 21:32:11;;;;;;;2.58;1.20;;;20.30;58.50;;;19.40;38.29;100266.06;10200459;28;96782;-88
2023/10/07 21:37:15;;;;;;;3.63;1.35;;;20.40;57.50;;;19.47;38.01;100267.63;10227428;28;96634;-87
2023/10/07 21:42:18;;;;;;;5.25;1.13;;;20.50;57.20;;;19.51;38.46;100255.38;10210847;28;96520;-87
2023/10/07 21:47:22;;;;;;;2.45;1.23;;;20.50;57.60;;;19.49;38.35;100257.47;10200955;28;96677;-86
2023/10/07 21:52:26;;;;;;;2.75;1.08;;;20.50;57.40;;;19.48;38.07;100261.19;10206109;28;96701;-87